Decoded Metar for YMHB (HOBART in AUSTRALIA) (IATA:HBA) | Meteo·Mobile Aviation Weather
aviador You're here:

YMHB Decoded Metar

HOBART in AUSTRALIA
Report Time2018-10-23 00:00:00
UTC Time2018-10-23 00:44:51
Flight Rules vfr VFR
Wind300° at 15 kt
W.Decomp.*RWY 30: 14.4 kt HW 4.1 kt LCW
W.Rank300° ranks 6
Current wind is above 300° avg. (10.1)
Visibility9999 m
Phenomena:N/A
Clouds:Scattered 048 Hf
Expected CloudBase > 5,200 ft AGL from Temp-Dew spread
CeilingNone
Temp18°C (ISA +3)
Dew Point05°C (43% RH)
AAT11.5°C
QNH1006 hPa
Density Alt820 ft
Elevation89 ft
Report Wrong Elevation
Raw Report
YMHB 230000Z 30015KT 9999 SCT048 18/05 Q1006=

Extra information for YMHB:More info

Metar Taf Metar & Taf Last 4 Metars F.Rules Stats Wind Profile Meteogram Temp Stats Airport Information Weather charts Add Link Nearby VenuesMetar ALERT Operation Metar Decoded Social comments